createdAt,value
2022-11-23T00:01:21.905Z,45.03
2022-11-23T00:03:50.596Z,43.97
2022-11-23T00:06:17.789Z,43.50
2022-11-23T00:08:44.446Z,44.17
2022-11-23T00:11:11.257Z,45.13
2022-11-23T00:13:40.431Z,44.20
2022-11-23T00:16:08.883Z,44.85
2022-11-23T00:18:35.712Z,44.08
2022-11-23T00:21:09.544Z,45.30
2022-11-23T00:23:36.667Z,44.40
2022-11-23T00:26:04.126Z,41.63
2022-11-23T00:28:30.737Z,43.13
2022-11-23T00:30:57.637Z,43.88
2022-11-23T00:33:24.191Z,44.45
2022-11-23T00:36:01.068Z,43.53
2022-11-23T00:38:28.653Z,44.13
2022-11-23T00:41:06.621Z,43.25
2022-11-23T00:43:33.517Z,45.92
2022-11-23T00:46:08.772Z,45.55
2022-11-23T00:48:35.599Z,44.63
2022-11-23T00:51:04.139Z,43.13
2022-11-23T00:53:30.804Z,46.42
2022-11-23T00:55:57.865Z,44.55
2022-11-23T00:58:25.187Z,43.00
2022-11-23T01:01:00.914Z,45.28
2022-11-23T01:03:29.065Z,45.60
2022-11-23T01:05:55.933Z,46.10
2022-11-23T01:08:22.403Z,43.72
2022-11-23T01:10:48.801Z,43.70
2022-11-23T01:13:15.412Z,43.90
2022-11-23T01:15:49.277Z,45.53
2022-11-23T01:18:15.731Z,43.53
2022-11-23T01:20:42.134Z,45.58
2022-11-23T01:23:08.548Z,43.75
2022-11-23T01:25:36.486Z,42.72
2022-11-23T01:28:03.166Z,42.30
2022-11-23T01:30:29.585Z,41.83
2022-11-23T01:32:56.046Z,43.10
2022-11-23T01:35:22.694Z,42.60
2022-11-23T01:37:49.168Z,42.08
2022-11-23T01:40:15.949Z,42.42
2022-11-23T01:43:00.500Z,40.83
2022-11-23T01:45:55.732Z,40.80
2022-11-23T01:48:29.876Z,41.63
2022-11-23T01:50:59.072Z,38.92
2022-11-23T01:53:27.359Z,43.53
2022-11-23T01:55:57.705Z,42.70
2022-11-23T01:58:26.587Z,41.40
2022-11-23T02:00:53.163Z,41.05
2022-11-23T02:03:19.953Z,41.55
2022-11-23T02:09:31.260Z,38.80
2022-11-23T02:11:58.609Z,40.75
2022-11-23T02:14:25.768Z,38.42
2022-11-23T02:16:52.235Z,39.95
2022-11-23T02:19:38.783Z,39.35
2022-11-23T02:22:12.461Z,39.30
2022-11-23T02:24:45.196Z,39.72
2022-11-23T02:27:11.728Z,40.33
2022-11-23T02:29:38.265Z,40.00
2022-11-23T02:32:05.030Z,37.63
2022-11-23T02:34:31.447Z,38.65
2022-11-23T02:36:57.975Z,37.85
2022-11-23T02:39:40.628Z,37.58
2022-11-23T02:42:07.053Z,37.92
2022-11-23T02:44:51.300Z,38.45
2022-11-23T02:47:17.752Z,39.60
2022-11-23T02:49:47.569Z,39.05
2022-11-23T02:52:14.339Z,37.45
2022-11-23T02:54:40.859Z,37.35
2022-11-23T02:57:08.165Z,39.15
2022-11-23T02:59:34.829Z,40.08
2022-11-23T03:02:02.650Z,39.50
2022-11-23T03:04:29.121Z,39.42
2022-11-23T03:06:56.005Z,38.92
2022-11-23T03:09:23.087Z,38.35
2022-11-23T03:11:49.627Z,39.80
2022-11-23T03:14:16.419Z,41.78
2022-11-23T03:16:42.889Z,37.35
2022-11-23T03:19:09.373Z,40.10
2022-11-23T03:21:36.812Z,41.17
2022-11-23T03:24:03.405Z,38.05
2022-11-23T03:26:29.830Z,39.30
2022-11-23T03:28:56.293Z,39.05
2022-11-23T03:31:22.770Z,37.40
2022-11-23T03:33:49.179Z,38.53
2022-11-23T03:36:15.580Z,40.97
2022-11-23T03:38:42.115Z,39.60
2022-11-23T03:41:09.344Z,41.03
2022-11-23T03:43:35.815Z,40.00
2022-11-23T03:46:02.321Z,38.72
2022-11-23T03:48:28.763Z,40.85
2022-11-23T03:50:55.157Z,38.70
2022-11-23T03:53:21.590Z,38.22
2022-11-23T03:55:48.050Z,39.38
2022-11-23T03:58:15.004Z,38.90
2022-11-23T04:00:41.747Z,40.05
2022-11-23T04:03:08.282Z,40.10
2022-11-23T04:05:34.730Z,37.97
2022-11-23T04:08:01.478Z,39.58
2022-11-23T04:10:28.088Z,38.53
2022-11-23T04:12:54.537Z,39.17
2022-11-23T04:15:21.081Z,39.00
2022-11-23T04:17:48.067Z,38.50
2022-11-23T04:20:14.981Z,35.70
2022-11-23T04:22:41.451Z,37.05
2022-11-23T04:25:08.356Z,35.58
2022-11-23T04:27:34.762Z,37.75
2022-11-23T04:30:01.265Z,36.72
2022-11-23T04:32:27.946Z,38.78
2022-11-23T04:34:54.401Z,37.42
2022-11-23T04:37:20.849Z,38.00
2022-11-23T04:39:47.587Z,38.22
2022-11-23T04:42:14.458Z,38.67
2022-11-23T04:44:40.943Z,37.33
2022-11-23T04:47:07.564Z,37.03
2022-11-23T04:49:34.252Z,38.40
2022-11-23T04:52:00.995Z,37.50
2022-11-23T04:54:27.461Z,37.97
2022-11-23T04:56:54.289Z,36.38
2022-11-23T04:59:22.176Z,36.88
2022-11-23T05:01:49.478Z,35.15
2022-11-23T05:04:17.864Z,36.65
2022-11-23T05:06:45.113Z,37.63
2022-11-23T05:09:11.913Z,34.97
2022-11-23T05:11:38.491Z,37.60
2022-11-23T05:14:05.137Z,36.17
2022-11-23T05:16:31.675Z,36.83
2022-11-23T05:18:58.128Z,35.65
2022-11-23T05:21:24.638Z,36.97
2022-11-23T05:23:51.254Z,35.60
2022-11-23T05:26:17.715Z,35.42
2022-11-23T05:28:44.132Z,34.17
2022-11-23T05:31:10.675Z,35.17
2022-11-23T05:33:37.362Z,33.45
2022-11-23T05:36:04.039Z,35.42
2022-11-23T05:38:30.497Z,35.38
2022-11-23T05:40:56.904Z,33.15
2022-11-23T05:43:23.377Z,34.78
2022-11-23T05:45:49.863Z,34.35
2022-11-23T05:48:16.490Z,34.88
2022-11-23T05:50:42.938Z,34.47
2022-11-23T05:53:10.052Z,33.72
2022-11-23T05:55:36.526Z,32.63
2022-11-23T05:58:03.869Z,33.63
2022-11-23T06:00:30.611Z,34.78
2022-11-23T06:03:03.346Z,34.03
2022-11-23T06:05:30.096Z,34.08
2022-11-23T06:07:56.559Z,34.28
2022-11-23T06:10:23.007Z,33.85
2022-11-23T06:12:50.103Z,32.53
2022-11-23T06:15:17.097Z,34.55
2022-11-23T06:17:43.620Z,34.97
2022-11-23T06:20:10.538Z,32.78
2022-11-23T06:22:36.969Z,34.08
2022-11-23T06:25:03.494Z,34.25
2022-11-23T06:27:29.947Z,35.30
2022-11-23T06:29:56.395Z,35.83
2022-11-23T06:32:22.974Z,33.58
2022-11-23T06:34:49.413Z,32.85
2022-11-23T06:37:15.810Z,33.85
2022-11-23T06:39:42.253Z,34.45
2022-11-23T06:42:37.129Z,33.13
2022-11-23T06:44:55.353Z,33.70
2022-11-23T06:47:26.087Z,34.33
2022-11-23T06:49:53.183Z,34.70
2022-11-23T06:52:20.005Z,33.60
2022-11-23T06:54:47.132Z,34.53
2022-11-23T06:57:13.676Z,34.33
2022-11-23T06:59:44.491Z,33.25
2022-11-23T07:02:12.179Z,33.47
2022-11-23T07:04:38.626Z,31.92
2022-11-23T07:07:05.252Z,33.47
2022-11-23T07:09:32.035Z,34.13
2022-11-23T07:11:58.920Z,33.08
2022-11-23T07:14:25.488Z,34.08
2022-11-23T07:16:51.967Z,33.30
2022-11-23T07:19:18.482Z,34.38
2022-11-23T07:21:45.711Z,31.92
2022-11-23T07:24:12.254Z,32.80
2022-11-23T07:26:38.651Z,33.33
2022-11-23T07:29:05.086Z,33.83
2022-11-23T07:31:32.251Z,31.25
2022-11-23T07:33:58.711Z,34.45
2022-11-23T07:36:25.149Z,33.55
2022-11-23T07:38:51.658Z,31.98
2022-11-23T07:41:18.327Z,33.67
2022-11-23T07:43:44.807Z,33.70
2022-11-23T07:46:11.257Z,33.13
2022-11-23T07:48:37.867Z,31.67
2022-11-23T07:51:04.500Z,31.42
2022-11-23T07:53:30.982Z,32.47
2022-11-23T07:56:01.005Z,33.78
2022-11-23T07:58:27.566Z,34.22
2022-11-23T08:00:54.113Z,32.67
2022-11-23T08:03:27.744Z,34.05
2022-11-23T08:05:54.837Z,31.10
2022-11-23T08:08:21.277Z,33.45
2022-11-23T08:10:52.971Z,32.65
2022-11-23T08:13:20.378Z,33.78
2022-11-23T08:15:53.416Z,31.58
2022-11-23T08:18:20.792Z,32.47
2022-11-23T08:20:47.238Z,32.92
2022-11-23T08:23:13.696Z,31.27
2022-11-23T08:25:40.127Z,31.17
2022-11-23T08:28:06.632Z,31.02
2022-11-23T08:30:34.544Z,30.73
2022-11-23T08:33:05.861Z,31.30
2022-11-23T08:35:36.936Z,31.58
2022-11-23T08:38:07.866Z,29.98
2022-11-23T08:40:35.157Z,30.25
2022-11-23T08:43:01.699Z,31.15
2022-11-23T08:45:28.599Z,31.77
2022-11-23T08:47:59.624Z,31.08
2022-11-23T08:50:26.122Z,32.97
2022-11-23T08:52:57.033Z,29.02
2022-11-23T08:55:24.555Z,30.00
2022-11-23T08:57:50.992Z,30.60
2022-11-23T09:00:17.797Z,28.70
2022-11-23T09:02:44.234Z,29.35
2022-11-23T09:05:11.383Z,29.35
2022-11-23T09:07:37.883Z,29.48
2022-11-23T09:10:04.911Z,28.92
2022-11-23T09:12:31.336Z,28.42
2022-11-23T09:14:58.041Z,27.58
2022-11-23T09:17:24.562Z,27.30
2022-11-23T09:19:51.522Z,29.33
2022-11-23T09:22:17.965Z,28.55
2022-11-23T09:24:44.463Z,27.42
2022-11-23T09:27:10.991Z,26.20
2022-11-23T09:29:37.462Z,25.83
2022-11-23T09:32:04.029Z,26.65
2022-11-23T09:34:30.620Z,26.23
2022-11-23T09:36:57.988Z,24.85
2022-11-23T09:39:24.531Z,23.00
2022-11-23T09:42:13.526Z,23.58
2022-11-23T09:44:56.436Z,20.70
2022-11-23T09:48:00.973Z,20.65
2022-11-23T09:50:34.300Z,19.33
2022-11-23T09:53:07.620Z,20.15
2022-11-23T09:55:39.849Z,19.27
2022-11-23T09:58:10.474Z,20.38
2022-11-23T10:01:04.591Z,19.50
2022-11-23T10:03:43.901Z,17.88
2022-11-23T10:06:23.867Z,17.90
2022-11-23T10:09:27.744Z,17.17
2022-11-23T10:12:05.238Z,17.25
2022-11-23T10:14:50.697Z,18.25
2022-11-23T10:17:43.743Z,17.58
2022-11-23T10:20:38.622Z,17.73
2022-11-23T10:23:17.415Z,17.80
2022-11-23T10:25:52.438Z,16.52
2022-11-23T10:28:22.411Z,17.70
2022-11-23T10:30:55.337Z,16.73
2022-11-23T10:33:37.813Z,17.65
2022-11-23T10:36:04.380Z,17.38
2022-11-23T10:38:32.632Z,17.80
2022-11-23T10:41:09.176Z,18.50
2022-11-23T10:43:38.343Z,17.00
2022-11-23T10:46:25.273Z,18.00
2022-11-23T10:48:53.395Z,17.48
2022-11-23T10:56:47.651Z,18.45
2022-11-23T10:59:38.844Z,18.73
2022-11-23T11:02:05.317Z,16.88
2022-11-23T11:04:32.060Z,18.25
2022-11-23T11:07:31.237Z,17.73
2022-11-23T11:10:04.081Z,17.90
2022-11-23T11:12:34.399Z,16.83
2022-11-23T11:15:12.068Z,17.27
2022-11-23T11:17:40.945Z,16.92
2022-11-23T11:20:33.314Z,17.00
2022-11-23T11:23:03.902Z,16.52
2022-11-23T11:25:36.165Z,16.63
2022-11-23T11:28:06.312Z,16.67
2022-11-23T11:30:45.913Z,16.95
2022-11-23T11:33:19.978Z,16.70
2022-11-23T11:35:51.782Z,16.45
2022-11-23T11:38:18.166Z,15.30
2022-11-23T11:40:49.870Z,15.93
2022-11-23T11:48:42.941Z,14.98
2022-11-23T11:51:28.296Z,15.57
2022-11-23T11:54:33.628Z,16.48
2022-11-23T12:27:36.807Z,16.15
2022-11-23T12:38:15.646Z,15.85
2022-11-23T12:41:29.975Z,16.20
2022-11-23T12:44:08.423Z,15.55
2022-11-23T12:46:58.588Z,15.25
2022-11-23T12:49:43.073Z,16.40
2022-11-23T12:52:31.515Z,15.77
2022-11-23T12:55:19.821Z,14.75
2022-11-23T12:57:58.597Z,14.95
2022-11-23T13:00:29.732Z,15.80
2022-11-23T13:02:56.119Z,15.60
2022-11-23T13:06:13.047Z,15.00
2022-11-23T13:08:54.543Z,15.02
2022-11-23T13:11:39.334Z,15.60
2022-11-23T13:14:14.668Z,15.40
2022-11-23T13:16:57.679Z,14.55
2022-11-23T13:19:53.832Z,14.57
2022-11-23T13:22:21.947Z,14.65
2022-11-23T13:25:27.698Z,15.13
2022-11-23T13:27:56.728Z,14.85
2022-11-23T13:33:37.841Z,16.10
2022-11-23T13:36:11.208Z,16.30
2022-11-23T13:38:40.250Z,14.45
2022-11-23T13:41:34.770Z,15.65
2022-11-23T13:44:24.261Z,16.83
2022-11-23T13:47:16.041Z,15.45
2022-11-23T13:49:46.156Z,15.15
2022-11-23T13:52:21.753Z,16.08
2022-11-23T13:55:10.607Z,15.93
2022-11-23T13:57:39.023Z,15.57
2022-11-23T14:00:43.193Z,15.57
2022-11-23T14:03:49.931Z,15.55
2022-11-23T14:06:35.011Z,14.25
2022-11-23T14:09:30.315Z,15.13
2022-11-23T14:12:12.036Z,14.98
2022-11-23T14:17:27.432Z,15.25
2022-11-23T14:22:49.085Z,14.95
2022-11-23T14:25:27.851Z,15.35
2022-11-23T14:28:07.991Z,14.68
2022-11-23T14:30:47.779Z,15.70
2022-11-23T14:33:32.952Z,15.68
2022-11-23T14:39:28.969Z,15.73
2022-11-23T14:42:00.632Z,16.02
2022-11-23T14:47:06.782Z,16.90
2022-11-23T14:49:33.805Z,15.60
2022-11-23T14:52:02.434Z,17.88
2022-11-23T14:54:30.547Z,16.38
2022-11-23T14:57:00.405Z,15.98
2022-11-23T14:59:32.959Z,17.17
2022-11-23T15:02:13.595Z,17.70
2022-11-23T15:04:59.768Z,17.75
2022-11-23T15:07:29.990Z,17.95
2022-11-23T15:09:56.415Z,18.48
2022-11-23T15:12:26.284Z,18.05
2022-11-23T15:14:54.091Z,19.13
2022-11-23T15:17:22.136Z,18.20
2022-11-23T15:19:56.252Z,18.17
2022-11-23T15:22:24.492Z,18.80
2022-11-23T15:24:51.377Z,17.92
2022-11-23T15:27:25.482Z,18.33
2022-11-23T15:29:57.964Z,19.27
2022-11-23T15:32:33.239Z,17.98
2022-11-23T15:35:07.904Z,17.90
2022-11-23T15:37:43.550Z,17.20
2022-11-23T15:40:17.731Z,18.23
2022-11-23T15:42:46.750Z,17.05
2022-11-23T15:45:44.300Z,18.33
2022-11-23T15:48:26.745Z,18.08
2022-11-23T15:50:54.190Z,17.48
2022-11-23T15:53:49.115Z,17.20
2022-11-23T15:56:23.653Z,17.42
2022-11-23T15:58:52.160Z,17.38
2022-11-23T16:01:19.488Z,17.38
2022-11-23T16:03:52.456Z,17.95
2022-11-23T16:06:39.054Z,16.92
2022-11-23T16:09:54.462Z,19.17
2022-11-23T16:12:34.040Z,18.33
2022-11-23T16:15:32.822Z,17.48
2022-11-23T16:18:02.712Z,17.70
2022-11-23T16:20:29.896Z,17.55
2022-11-23T16:22:59.504Z,17.25
2022-11-23T16:25:31.759Z,17.23
2022-11-23T16:28:04.397Z,18.45
2022-11-23T16:30:43.305Z,17.48
2022-11-23T16:33:15.063Z,16.67
2022-11-23T16:35:41.560Z,18.05
2022-11-23T16:38:08.100Z,18.15
2022-11-23T16:40:34.770Z,18.63
2022-11-23T16:43:01.332Z,17.88
2022-11-23T16:45:27.873Z,18.33
2022-11-23T16:48:00.346Z,18.25
2022-11-23T16:50:31.653Z,18.27
2022-11-23T16:53:02.125Z,18.20
2022-11-23T16:55:28.555Z,17.42
2022-11-23T16:57:56.016Z,18.65
2022-11-23T17:00:23.491Z,18.42
2022-11-23T17:05:25.141Z,18.92
2022-11-23T17:07:51.884Z,19.17
2022-11-23T17:10:18.480Z,19.80
2022-11-23T17:12:52.684Z,18.90
2022-11-23T17:15:20.794Z,19.52
2022-11-23T17:17:47.235Z,19.65
2022-11-23T17:20:14.877Z,20.73
2022-11-23T17:22:41.382Z,19.50
2022-11-23T17:25:14.397Z,19.58
2022-11-23T17:27:42.239Z,20.20
2022-11-23T17:30:21.156Z,20.35
2022-11-23T17:32:49.120Z,19.30
2022-11-23T17:35:16.551Z,20.33
2022-11-23T17:37:43.265Z,20.65
2022-11-23T17:40:21.518Z,20.10
2022-11-23T17:42:48.199Z,21.58
2022-11-23T17:45:15.098Z,22.10
2022-11-23T17:47:43.945Z,22.38
2022-11-23T17:50:17.477Z,23.23
2022-11-23T17:52:47.830Z,22.92
2022-11-23T17:55:15.332Z,24.25
2022-11-23T17:57:42.112Z,24.05
2022-11-23T18:00:19.430Z,23.77
2022-11-23T18:02:46.176Z,24.98
2022-11-23T18:05:16.528Z,23.35
2022-11-23T18:07:48.544Z,22.35
2022-11-23T18:10:15.628Z,22.73
2022-11-23T18:12:44.442Z,23.58
2022-11-23T18:15:11.455Z,23.60
2022-11-23T18:17:37.907Z,26.05
2022-11-23T18:20:08.376Z,25.23
2022-11-23T18:22:35.709Z,26.25
2022-11-23T18:25:02.920Z,25.20
2022-11-23T18:27:32.038Z,25.58
2022-11-23T18:29:58.678Z,25.33
2022-11-23T18:32:25.154Z,23.92
2022-11-23T18:34:51.569Z,23.15
2022-11-23T18:37:17.998Z,25.80
2022-11-23T18:39:44.404Z,25.05
2022-11-23T18:42:10.986Z,27.60
2022-11-23T18:44:37.444Z,24.95
2022-11-23T18:47:04.018Z,27.63
2022-11-23T18:49:30.801Z,28.00
2022-11-23T18:51:57.445Z,27.83
2022-11-23T18:54:23.867Z,26.30
2022-11-23T18:56:50.332Z,26.13
2022-11-23T18:59:42.026Z,26.38
2022-11-23T19:02:04.579Z,26.73
2022-11-23T19:04:32.538Z,27.98
2022-11-23T19:06:59.221Z,29.13
2022-11-23T19:09:25.624Z,30.83
2022-11-23T19:11:53.254Z,31.25
2022-11-23T19:14:19.683Z,29.60
2022-11-23T19:16:46.089Z,30.17
2022-11-23T19:19:12.673Z,30.48
2022-11-23T19:21:39.258Z,32.40
2022-11-23T19:24:06.710Z,31.70
2022-11-23T19:26:36.702Z,30.38
2022-11-23T19:29:03.690Z,31.88
2022-11-23T19:31:31.113Z,31.50
2022-11-23T19:34:02.707Z,31.83
2022-11-23T19:38:57.487Z,33.20
2022-11-23T19:41:29.574Z,31.10
2022-11-23T19:43:57.995Z,32.50
2022-11-23T19:46:25.018Z,32.75
2022-11-23T19:48:51.578Z,32.22
2022-11-23T19:51:20.002Z,33.15
2022-11-23T19:53:49.112Z,33.65
2022-11-23T19:56:25.195Z,35.35
2022-11-23T19:58:54.190Z,35.53
2022-11-23T20:01:22.778Z,33.78
2022-11-23T20:03:53.360Z,34.00
2022-11-23T20:06:24.040Z,32.45
2022-11-23T20:08:55.562Z,25.43
2022-11-23T20:13:48.515Z,37.72
2022-11-23T20:16:17.540Z,36.15
2022-11-23T20:18:45.992Z,37.67
2022-11-23T20:21:14.489Z,38.38
2022-11-23T20:23:42.150Z,35.65
2022-11-23T20:26:11.038Z,39.22
2022-11-23T20:28:37.542Z,36.55
2022-11-23T20:31:05.637Z,37.58
2022-11-23T20:33:32.517Z,36.22
2022-11-23T20:36:09.450Z,37.55
2022-11-23T20:38:38.392Z,37.17
2022-11-23T20:41:26.451Z,37.60
2022-11-23T20:43:58.828Z,45.97
2022-11-23T20:46:53.828Z,39.25
2022-11-23T20:49:13.240Z,37.35
2022-11-23T20:51:39.681Z,40.03
2022-11-23T20:54:06.151Z,38.65
2022-11-23T20:56:32.744Z,39.00
2022-11-23T20:59:04.186Z,38.40
2022-11-23T21:01:30.824Z,37.65
2022-11-23T21:03:58.837Z,40.10
2022-11-23T21:06:27.049Z,39.45
2022-11-23T21:08:54.682Z,38.45
2022-11-23T21:11:44.611Z,39.92
2022-11-23T21:14:17.867Z,40.00
2022-11-23T21:16:58.635Z,39.10
2022-11-23T21:19:27.366Z,39.03
2022-11-23T21:21:54.080Z,39.80
2022-11-23T21:24:21.353Z,39.55
2022-11-23T21:26:48.432Z,40.70
2022-11-23T21:29:18.874Z,40.55
2022-11-23T21:31:47.039Z,39.17
2022-11-23T21:34:21.836Z,41.05
2022-11-23T21:36:48.589Z,39.08
2022-11-23T21:39:15.882Z,41.28
2022-11-23T21:41:42.458Z,41.47
2022-11-23T21:44:10.329Z,40.28
2022-11-23T21:46:38.731Z,38.97
2022-11-23T21:49:08.555Z,40.80
2022-11-23T21:51:36.291Z,39.10
2022-11-23T21:54:05.978Z,41.53
2022-11-23T21:56:33.369Z,42.22
2022-11-23T21:58:59.970Z,38.70
2022-11-23T22:01:31.560Z,39.30
2022-11-23T22:06:26.468Z,40.17
2022-11-23T22:08:55.187Z,42.60
2022-11-23T22:11:32.279Z,41.53
2022-11-23T22:14:00.811Z,41.60
2022-11-23T22:16:28.800Z,41.75
2022-11-23T22:18:56.322Z,43.25
2022-11-23T22:21:24.897Z,40.88
2022-11-23T22:23:51.473Z,41.92
2022-11-23T22:26:19.465Z,41.70
2022-11-23T22:28:50.964Z,43.90
2022-11-23T22:33:45.797Z,43.28
2022-11-23T22:36:20.119Z,39.63
2022-11-23T22:38:46.804Z,42.72
2022-11-23T22:41:15.736Z,42.67
2022-11-23T22:43:42.783Z,42.63
2022-11-23T22:46:18.152Z,42.08
2022-11-23T22:48:47.042Z,41.97
2022-11-23T22:51:19.162Z,43.67
2022-11-23T22:53:46.022Z,44.17
2022-11-23T22:56:17.387Z,44.03
2022-11-23T22:58:45.527Z,42.40
2022-11-23T23:01:17.024Z,41.22
2022-11-23T23:06:16.803Z,41.75
2022-11-23T23:08:44.299Z,43.72
2022-11-23T23:11:11.092Z,42.15
2022-11-23T23:13:37.685Z,45.05
2022-11-23T23:16:06.846Z,42.20
2022-11-23T23:18:33.348Z,42.13
2022-11-23T23:21:01.442Z,43.67
2022-11-23T23:23:28.041Z,44.13
2022-11-23T23:25:54.722Z,44.28
2022-11-23T23:28:21.473Z,43.75
2022-11-23T23:30:48.006Z,44.67
2022-11-23T23:33:14.521Z,45.72
2022-11-23T23:35:41.108Z,44.78
2022-11-23T23:38:07.649Z,46.78
2022-11-23T23:40:34.120Z,43.05
2022-11-23T23:43:00.864Z,44.55
2022-11-23T23:45:27.354Z,46.80
2022-11-23T23:47:53.812Z,47.10
2022-11-23T23:50:20.214Z,46.25
2022-11-23T23:52:46.584Z,45.10
2022-11-23T23:55:12.977Z,45.38
2022-11-23T23:57:39.378Z,47.97
